Time;durP1;ratioP1;P1;durP2;ratioP2;P2;SDS_P1;SDS_P2;PMS_P1;PMS_P2;Temp;Humidity;BMP_temperature;BMP_pressure;BME280_temperature;BME280_humidity;BME280_pressure;Samples;Min_cycle;Max_cycle;Signal;HPM_P1;HPM_P2
2022/08/06 00:00:00;;;;;;;;;;;;;;;14.17;100.00;100237.78;5075640;28;19924;-86
2022/08/06 00:02:37;;;;;;;;;;;;;;;13.85;100.00;100242.97;5037184;28;19936;-87
2022/08/06 00:05:05;;;;;;;;;;;;;;;13.89;100.00;100241.72;5073480;28;19971;-87
2022/08/06 00:07:34;;;;;;;;;;;;;;;14.15;100.00;100243.03;5070161;28;20018;-87
2022/08/06 00:10:02;;;;;;;;;;;;;;;14.67;100.00;100235.97;5045328;28;19928;-87
2022/08/06 00:12:31;;;;;;;;;;;;;;;14.83;100.00;100235.34;5059543;28;19928;-87
2022/08/06 00:14:58;;;;;;;;;;;;;;;14.90;100.00;100243.69;5075521;28;19932;-87
2022/08/06 00:17:25;;;;;;;;;;;;;;;14.81;100.00;100238.59;5084389;28;20267;-86
2022/08/06 00:19:53;;;;;;;;;;;;;;;14.67;100.00;100243.59;5070334;28;19924;-87
2022/08/06 00:22:20;;;;;;;;;;;;;;;15.19;100.00;100250.47;5079604;28;19931;-87
2022/08/06 00:24:47;;;;;;;;;;;;;;;14.98;100.00;100253.63;5071298;28;19963;-87
2022/08/06 00:27:14;;;;;;;;;;;;;;;14.59;100.00;100244.91;5052772;28;19981;-87
2022/08/06 00:29:42;;;;;;;;;;;;;;;15.39;100.00;100251.34;5094171;28;19924;-87
2022/08/06 00:32:10;;;;;;;;;;;;;;;15.44;100.00;100251.69;5046724;28;19924;-87
2022/08/06 00:34:37;;;;;;;;;;;;;;;15.11;100.00;100249.78;5079237;28;19932;-86
2022/08/06 00:37:04;;;;;;;;;;;;;;;15.32;100.00;100249.44;5097071;28;19924;-88
2022/08/06 00:39:32;;;;;;;;;;;;;;;14.83;100.00;100247.38;5068977;28;19932;-87
2022/08/06 00:41:59;;;;;;;;;;;;;;;15.02;100.00;100252.34;5090389;28;19930;-87
2022/08/06 00:44:27;;;;;;;;;;;;;;;15.10;100.00;100248.16;5091383;28;20395;-87
2022/08/06 00:46:54;;;;;;;;;;;;;;;15.11;100.00;100248.97;5110728;27;20027;-88
2022/08/06 00:49:21;;;;;;;;;;;;;;;14.87;100.00;100252.97;5093166;28;19924;-87
2022/08/06 00:51:48;;;;;;;;;;;;;;;14.96;100.00;100253.22;5097166;28;19923;-88
2022/08/06 00:54:15;;;;;;;;;;;;;;;14.90;100.00;100243.69;5038775;28;20015;-88
2022/08/06 00:56:42;;;;;;;;;;;;;;;14.85;100.00;100253.38;5073681;28;19925;-88
2022/08/06 00:59:10;;;;;;;;;;;;;;;14.96;100.00;100253.22;5088464;28;20473;-87
2022/08/06 01:01:37;;;;;;;;;;;;;;;15.26;100.00;100239.88;5083738;28;19935;-88
2022/08/06 01:04:04;;;;;;;;;;;;;;;15.21;100.00;100242.38;5062068;28;19924;-88
2022/08/06 01:06:31;;;;;;;;;;;;;;;15.43;100.00;100255.75;5108513;28;19924;-88
2022/08/06 01:08:59;;;;;;;;;;;;;;;14.89;100.00;100254.13;5108578;28;19964;-88
2022/08/06 01:11:27;;;;;;;;;;;;;;;15.05;100.00;100259.94;5079757;28;19935;-88
2022/08/06 01:13:54;;;;;;;;;;;;;;;14.89;100.00;100259.75;5055215;28;19934;-88
2022/08/06 01:16:29;;;;;;;;;;;;;;;14.89;100.00;100254.13;5090996;28;19924;-88
2022/08/06 01:19:03;;;;;;;;;;;;;;;15.20;100.00;100247.22;5091857;28;20307;-87
2022/08/06 01:21:30;;;;;;;;;;;;;;;15.28;100.00;100248.69;5077395;28;19931;-88
2022/08/06 01:24:16;;;;;;;;;;;;;;;15.40;100.00;100253.78;5075147;28;19935;-88
2022/08/06 01:26:53;;;;;;;;;;;;;;;15.48;100.00;100258.03;5078423;28;19924;-88
2022/08/06 01:29:41;;;;;;;;;;;;;;;15.40;100.00;100256.59;5054529;28;20019;-88
2022/08/06 01:32:11;;;;;;;;;;;;;;;14.93;100.00;100259.72;5074266;28;19924;-88
2022/08/06 01:34:41;;;;;;;;;;;;;;;15.17;100.00;100258.53;5055793;28;20387;-88
2022/08/06 01:37:21;;;;;;;;;;;;;;;14.89;100.00;100262.56;5095953;28;19931;-88
2022/08/06 01:39:52;;;;;;;;;;;;;;;15.15;100.00;100261.78;5061157;28;20447;-89
2022/08/06 01:42:21;;;;;;;;;;;;;;;15.09;100.00;100262.69;5041702;28;19947;-89
2022/08/06 01:44:49;;;;;;;;;;;;;;;15.17;100.00;100258.53;5090651;28;19924;-88
2022/08/06 01:47:18;;;;;;;;;;;;;;;15.05;100.00;100259.94;5078014;28;20022;-88
2022/08/06 01:49:50;;;;;;;;;;;;;;;15.09;100.00;100257.84;5044820;28;19924;-88
2022/08/06 01:52:19;;;;;;;;;;;;;;;15.22;100.00;100253.22;5033381;28;19975;-89
2022/08/06 01:54:49;;;;;;;;;;;;;;;15.39;100.00;100254.16;5080957;28;19947;-89
2022/08/06 01:57:19;;;;;;;;;;;;;;;15.21;100.00;100260.06;5044800;28;19935;-88
2022/08/06 01:59:48;;;;;;;;;;;;;;;15.32;100.00;100255.06;5079236;28;19928;-88
2022/08/06 02:02:24;;;;;;;;;;;;;;;15.30;100.00;100257.50;5045156;28;19935;-88
2022/08/06 02:04:55;;;;;;;;;;;;;;;15.34;100.00;100257.47;5068030;28;19959;-86
2022/08/06 02:07:26;;;;;;;;;;;;;;;15.32;100.00;100251.44;5061115;28;19930;-88
2022/08/06 02:09:54;;;;;;;;;;;;;;;14.95;100.00;100263.69;5063487;28;20019;-88
2022/08/06 02:12:23;;;;;;;;;;;;;;;14.63;100.00;100256.94;5107509;28;19924;-87
2022/08/06 02:14:55;;;;;;;;;;;;;;;14.87;100.00;100253.78;5073809;28;19925;-88
2022/08/06 02:17:30;;;;;;;;;;;;;;;14.99;100.00;100250.38;5090492;28;20292;-88
2022/08/06 02:20:01;;;;;;;;;;;;;;;14.91;100.00;100245.25;5080785;28;19932;-88
2022/08/06 02:22:28;;;;;;;;;;;;;;;14.48;100.00;100256.28;5070607;28;19929;-88
2022/08/06 02:24:57;;;;;;;;;;;;;;;14.12;100.00;100255.09;5077755;28;19925;-88
2022/08/06 02:27:24;;;;;;;;;;;;;;;14.47;100.00;100246.28;5077661;28;19924;-87
2022/08/06 02:29:54;;;;;;;;;;;;;;;14.57;100.00;100242.50;5044684;28;20014;-88
2022/08/06 02:32:21;;;;;;;;;;;;;;;14.62;100.00;100244.88;5060183;28;19924;-87
2022/08/06 02:34:48;;;;;;;;;;;;;;;14.71;100.00;100252.81;5077275;28;19935;-88
2022/08/06 02:37:19;;;;;;;;;;;;;;;14.77;100.00;100254.69;5066109;28;19948;-88
2022/08/06 02:39:53;;;;;;;;;;;;;;;14.54;100.00;100243.34;5036826;28;19924;-88
2022/08/06 02:42:20;;;;;;;;;;;;;;;14.35;100.00;100252.47;5089000;28;19924;-87
2022/08/06 02:45:07;;;;;;;;;;;;;;;14.38;100.00;100262.88;5076954;28;20291;-88
2022/08/06 02:47:40;;;;;;;;;;;;;;;14.24;100.00;100263.03;5036892;28;19960;-87
2022/08/06 02:50:08;;;;;;;;;;;;;;;14.06;100.00;100268.03;5069654;28;19925;-87
2022/08/06 02:52:38;;;;;;;;;;;;;;;14.29;100.00;100259.75;5077121;28;19932;-87
2022/08/06 02:55:14;;;;;;;;;;;;;;;14.26;100.00;100254.97;5073055;28;19931;-87
2022/08/06 02:58:01;;;;;;;;;;;;;;;13.61;100.00;100250.44;5069565;28;19925;-87
2022/08/06 03:00:29;;;;;;;;;;;;;;;13.53;100.00;100262.13;5069790;28;20377;-87
2022/08/06 03:02:58;;;;;;;;;;;;;;;14.00;100.00;100264.06;5069349;28;20380;-88
2022/08/06 03:05:25;;;;;;;;;;;;;;;13.96;100.00;100263.34;5053140;28;20384;-87
2022/08/06 03:07:54;;;;;;;;;;;;;;;13.75;100.00;100255.13;5036185;28;20418;-87
2022/08/06 03:10:23;;;;;;;;;;;;;;;14.34;100.00;100257.28;5036285;28;19954;-88
2022/08/06 03:12:51;;;;;;;;;;;;;;;14.30;100.00;100255.72;5069303;28;19995;-87
2022/08/06 03:15:19;;;;;;;;;;;;;;;14.36;100.00;100254.03;5054171;28;20402;-87
2022/08/06 03:17:47;;;;;;;;;;;;;;;14.48;100.00;100249.91;5063126;28;19925;-87
2022/08/06 03:20:16;;;;;;;;;;;;;;;14.57;100.00;100256.56;5089477;28;19929;-87
2022/08/06 03:22:46;;;;;;;;;;;;;;;14.42;100.00;100257.97;5037563;28;19978;-87
2022/08/06 03:25:15;;;;;;;;;;;;;;;14.37;100.00;100256.44;5054474;28;19928;-87
2022/08/06 03:27:44;;;;;;;;;;;;;;;14.24;100.00;100254.59;5092717;28;19924;-89
2022/08/06 03:30:15;;;;;;;;;;;;;;;14.14;100.00;100259.13;5019697;28;19925;-88
2022/08/06 03:32:43;;;;;;;;;;;;;;;14.25;100.00;100259.03;5052516;28;20328;-87
2022/08/06 03:35:37;;;;;;;;;;;;;;;14.26;100.00;100257.78;5052340;28;19932;-88
2022/08/06 03:38:06;;;;;;;;;;;;;;;14.18;100.00;100256.25;5052625;28;19952;-88
2022/08/06 03:40:33;;;;;;;;;;;;;;;13.96;100.00;100268.94;5094876;28;19932;-89
2022/08/06 03:43:01;;;;;;;;;;;;;;;14.01;100.00;100268.50;5052995;28;19925;-88
2022/08/06 03:45:29;;;;;;;;;;;;;;;14.15;100.00;100266.31;5053264;28;20114;-88
2022/08/06 03:47:57;;;;;;;;;;;;;;;14.33;100.00;100274.56;5092694;28;20069;-88
2022/08/06 03:50:28;;;;;;;;;;;;;;;14.41;100.00;100267.66;5075918;28;19924;-88
2022/08/06 03:52:59;;;;;;;;;;;;;;;14.48;100.00;100275.22;5092766;28;20279;-88
2022/08/06 03:55:28;;;;;;;;;;;;;;;14.53;100.00;100275.53;5089180;28;19931;-88
2022/08/06 03:58:00;;;;;;;;;;;;;;;14.24;100.00;100274.28;5063313;28;20321;-89
2022/08/06 04:00:30;;;;;;;;;;;;;;;14.22;100.00;100271.06;5088318;28;19939;-88
2022/08/06 04:02:58;;;;;;;;;;;;;;;13.98;100.00;100272.16;5093454;28;20063;-88
2022/08/06 04:05:28;;;;;;;;;;;;;;;13.92;100.00;100274.59;5080916;28;20304;-88
2022/08/06 04:08:05;;;;;;;;;;;;;;;13.52;100.00;100271.78;5077994;28;19931;-88
2022/08/06 04:10:43;;;;;;;;;;;;;;;13.96;100.00;100271.75;5059777;28;19940;-88
2022/08/06 04:13:11;;;;;;;;;;;;;;;13.50;100.00;100279.81;5096123;28;19925;-88
2022/08/06 04:15:39;;;;;;;;;;;;;;;13.76;100.00;100284.81;5092855;28;19928;-88
2022/08/06 04:18:15;;;;;;;;;;;;;;;13.89;100.00;100280.25;5078120;28;19930;-87
2022/08/06 04:20:47;;;;;;;;;;;;;;;13.98;100.00;100283.38;5079447;28;19924;-88
2022/08/06 04:23:14;;;;;;;;;;;;;;;14.01;100.00;100282.56;5095650;28;19960;-88
2022/08/06 04:25:52;;;;;;;;;;;;;;;14.05;100.00;100277.69;5077253;28;20015;-88
2022/08/06 04:28:20;;;;;;;;;;;;;;;13.90;100.00;100288.25;5092737;28;19963;-89
2022/08/06 04:30:48;;;;;;;;;;;;;;;13.82;100.00;100280.31;5042729;28;19925;-88
2022/08/06 04:33:17;;;;;;;;;;;;;;;13.98;100.00;100281.34;5082704;28;19947;-88
2022/08/06 04:35:45;;;;;;;;;;;;;;;13.99;100.00;100284.97;5072900;28;19924;-88
2022/08/06 04:38:13;;;;;;;;;;;;;;;14.06;100.00;100282.06;5092335;28;20406;-89
2022/08/06 04:40:40;;;;;;;;;;;;;;;13.68;100.00;100283.25;5076925;28;19931;-89
2022/08/06 04:43:09;;;;;;;;;;;;;;;13.65;100.00;100284.09;5078991;28;19974;-89
2022/08/06 04:45:37;;;;;;;;;;;;;;;14.05;100.00;100284.09;5096286;28;20341;-89
2022/08/06 04:48:30;;;;;;;;;;;;;;;14.09;100.00;100278.44;5078777;28;20396;-89
2022/08/06 04:50:57;;;;;;;;;;;;;;;13.67;100.00;100278.88;5068727;28;20450;-89
2022/08/06 04:53:24;;;;;;;;;;;;;;;14.01;100.00;100272.09;5071860;28;20368;-85
2022/08/06 04:55:51;;;;;;;;;;;;;;;14.06;100.00;100273.66;5071655;28;20506;-86
2022/08/06 04:58:18;;;;;;;;;;;;;;;14.31;100.00;100277.03;5092025;28;19935;-87
2022/08/06 05:00:46;;;;;;;;;;;;;;;14.39;100.00;100287.75;5095535;28;19924;-88
2022/08/06 05:03:14;;;;;;;;;;;;;;;13.93;100.00;100297.88;5063656;28;19960;-88
2022/08/06 05:06:00;;;;;;;;;;;;;;;13.69;100.00;100299.69;5094837;28;19939;-88
2022/08/06 05:08:28;;;;;;;;;;;;;;;13.90;100.00;100295.91;5095483;28;19925;-85
2022/08/06 05:11:00;;;;;;;;;;;;;;;14.10;100.00;100302.53;5095454;28;19924;-87
2022/08/06 05:13:33;;;;;;;;;;;;;;;14.54;100.00;100299.59;5061787;28;19927;-87
2022/08/06 05:16:03;;;;;;;;;;;;;;;14.59;100.00;100310.41;5090815;28;19925;-87
2022/08/06 05:18:34;;;;;;;;;;;;;;;14.73;100.00;100304.59;5074549;28;19986;-88
2022/08/06 05:21:03;;;;;;;;;;;;;;;14.77;100.00;100302.53;5064359;28;19924;-88
2022/08/06 05:23:47;;;;;;;;;;;;;;;14.91;100.00;100302.34;5058381;28;20380;-87
2022/08/06 05:26:15;;;;;;;;;;;;;;;15.02;100.00;100305.81;5056954;28;19932;-88
2022/08/06 05:28:42;;;;;;;;;;;;;;;15.23;100.00;100307.50;5045044;28;19924;-88
2022/08/06 05:31:09;;;;;;;;;;;;;;;15.34;100.00;100310.97;5061995;28;19928;-89
2022/08/06 05:33:37;;;;;;;;;;;;;;;15.45;100.00;100309.59;5067300;28;20071;-87
2022/08/06 05:36:06;;;;;;;;;;;;;;;15.39;100.00;100307.69;5077374;28;20019;-89
2022/08/06 05:38:34;;;;;;;;;;;;;;;15.43;100.00;100306.44;5074406;28;20470;-89
2022/08/06 05:41:03;;;;;;;;;;;;;;;15.59;100.00;100315.00;5074520;28;19944;-89
2022/08/06 05:43:30;;;;;;;;;;;;;;;15.69;100.00;100308.38;5074486;28;19924;-89
2022/08/06 05:45:59;;;;;;;;;;;;;;;15.69;100.00;100308.38;5045053;28;19924;-89
2022/08/06 05:48:30;;;;;;;;;;;;;;;15.67;100.00;100310.84;5094468;28;19924;-89
2022/08/06 05:51:02;;;;;;;;;;;;;;;15.68;100.00;100306.81;5061435;28;20014;-89
2022/08/06 05:53:33;;;;;;;;;;;;;;;15.76;100.00;100310.28;5058837;28;20340;-88
2022/08/06 05:56:04;;;;;;;;;;;;;;;15.82;100.00;100308.59;5075736;28;19924;-89
2022/08/06 05:58:36;;;;;;;;;;;;;;;15.37;100.00;100312.94;5098645;28;20024;-89
2022/08/06 06:01:05;;;;;;;;;;;;;;;15.48;100.00;100320.00;5070517;28;19924;-88
2022/08/06 06:03:32;;;;;;;;;;;;;;;15.57;100.00;100322.31;5054240;28;19924;-89
2022/08/06 06:06:00;;;;;;;;;;;;;;;15.73;100.00;100317.59;5037663;28;19928;-88
2022/08/06 06:08:31;;;;;;;;;;;;;;;15.80;100.00;100323.09;5054284;28;19974;-88
2022/08/06 06:10:58;;;;;;;;;;;;;;;16.06;100.00;100327.88;5056986;28;20019;-89
2022/08/06 06:13:26;;;;;;;;;;;;;;;15.58;100.00;100335.97;5020991;28;19924;-86
2022/08/06 06:16:01;;;;;;;;;;;;;;;15.93;100.00;100340.97;5084091;28;19974;-84
2022/08/06 06:18:55;;;;;;;;;;;;;;;15.90;100.00;100341.84;5073073;28;19932;-87
2022/08/06 06:21:46;;;;;;;;;;;;;;;15.92;100.00;100338.59;5049974;28;19931;-80
2022/08/06 06:24:36;;;;;;;;;;;;;;;15.84;100.00;100337.91;5054068;28;19928;-80
2022/08/06 06:27:07;;;;;;;;;;;;;;;16.39;100.00;100345.00;5060143;28;20006;-81
2022/08/06 06:29:36;;;;;;;;;;;;;;;16.45;100.00;100349.72;5068235;28;19924;-81
2022/08/06 06:32:10;;;;;;;;;;;;;;;16.65;100.00;100342.06;5054924;28;19950;-80
2022/08/06 06:34:54;;;;;;;;;;;;;;;16.83;100.00;100347.34;5069203;28;20261;-82
2022/08/06 06:37:50;;;;;;;;;;;;;;;17.02;100.00;100355.00;5066746;28;19972;-82
2022/08/06 06:40:21;;;;;;;;;;;;;;;17.40;100.00;100342.03;5065037;28;19931;-83
2022/08/06 06:42:57;;;;;;;;;;;;;;;17.41;100.00;100350.09;5073550;28;19977;-82
2022/08/06 06:45:30;;;;;;;;;;;;;;;17.48;100.00;100344.28;5057001;28;20023;-83
2022/08/06 06:47:59;;;;;;;;;;;;;;;17.56;100.00;100348.53;5074762;28;19932;-82
2022/08/06 06:50:36;;;;;;;;;;;;;;;17.34;100.00;100349.44;5090168;28;19925;-83
2022/08/06 06:53:06;;;;;;;;;;;;;;;17.71;100.00;100337.66;5073571;28;19987;-82
2022/08/06 06:55:38;;;;;;;;;;;;;;;17.27;100.00;100346.75;5107382;28;20413;-82
2022/08/06 06:58:12;;;;;;;;;;;;;;;17.82;100.00;100347.50;5090687;28;20378;-82
2022/08/06 07:00:41;;;;;;;;;;;;;;;18.15;100.00;100347.44;5056907;28;20304;-82
2022/08/06 07:03:09;;;;;;;;;;;;;;;18.62;100.00;100349.41;5073193;28;20018;-82
2022/08/06 07:05:38;;;;;;;;;;;;;;;19.05;100.00;100349.75;5106853;28;19930;-83
2022/08/06 07:08:07;;;;;;;;;;;;;;;19.03;100.00;100355.06;5073624;28;19924;-82
2022/08/06 07:10:35;;;;;;;;;;;;;;;19.87;100.00;100354.47;5074547;28;19924;-82
2022/08/06 07:13:04;;;;;;;;;;;;;;;20.26;100.00;100341.81;5074051;28;19931;-82
2022/08/06 07:15:32;;;;;;;;;;;;;;;21.04;100.00;100346.22;5107137;28;19925;-83
2022/08/06 07:18:01;;;;;;;;;;;;;;;21.86;100.00;100325.47;5073222;28;19960;-82
2022/08/06 07:20:30;;;;;;;;;;;;;;;22.63;100.00;100327.78;5106871;28;19924;-82
2022/08/06 07:22:59;;;;;;;;;;;;;;;22.97;100.00;100323.78;5073232;28;20436;-83
2022/08/06 07:25:26;;;;;;;;;;;;;;;22.35;100.00;100320.47;5074673;28;20023;-83
2022/08/06 07:27:53;;;;;;;;;;;;;;;22.57;100.00;100326.84;5073547;28;19925;-83
2022/08/06 07:30:21;;;;;;;;;;;;;;;22.27;100.00;100324.91;5074427;28;19931;-81
2022/08/06 07:32:49;;;;;;;;;;;;;;;22.22;100.00;100322.66;5072914;28;20389;-85
2022/08/06 07:35:17;;;;;;;;;;;;;;;23.01;100.00;100328.03;5089393;28;19982;-86
2022/08/06 07:37:48;;;;;;;;;;;;;;;23.50;100.00;100324.91;5073108;28;19925;-86
2022/08/06 07:40:20;;;;;;;;;;;;;;;23.47;100.00;100320.19;5089465;28;19924;-83
2022/08/06 07:42:50;;;;;;;;;;;;;;;23.43;100.00;100324.47;5056391;28;20376;-83
2022/08/06 07:45:17;;;;;;;;;;;;;;;23.14;100.00;100325.78;5074083;28;19970;-81
2022/08/06 07:47:46;;;;;;;;;;;;;;;23.81;100.00;100321.75;5072714;28;20436;-80
2022/08/06 07:50:13;;;;;;;;;;;;;;;24.06;100.00;100327.03;5073880;28;19931;-83
2022/08/06 07:52:41;;;;;;;;;;;;;;;24.72;100.00;100319.84;5072703;28;20023;-84
2022/08/06 07:55:10;;;;;;;;;;;;;;;23.58;100.00;100325.34;5072642;28;19931;-84
2022/08/06 07:57:38;;;;;;;;;;;;;;;22.99;100.00;100336.28;5055948;28;19947;-83
2022/08/06 08:00:07;;;;;;;;;;;;;;;22.84;100.00;100337.44;5073531;28;20497;-80
2022/08/06 08:02:40;;;;;;;;;;;;;;;21.89;100.00;100346.47;5039731;28;19925;-82
2022/08/06 08:07:55;;;;;;;;;;;;;;;22.41;100.00;100340.56;5073423;28;19982;-79
2022/08/06 08:10:23;;;;;;;;;;;;;;;21.90;100.00;100340.31;5073587;28;19958;-81
2022/08/06 08:12:51;;;;;;;;;;;;;;;21.73;100.00;100347.53;5071808;28;20011;-84
2022/08/06 08:15:18;;;;;;;;;;;;;;;21.15;100.00;100355.13;5072279;28;20363;-81
2022/08/06 08:17:46;;;;;;;;;;;;;;;21.83;100.00;100349.16;5075554;28;19924;-81
2022/08/06 08:20:14;;;;;;;;;;;;;;;22.14;100.00;100347.03;5055494;28;19986;-82
2022/08/06 08:22:41;;;;;;;;;;;;;;;21.66;100.00;100355.56;5077103;28;19924;-83
2022/08/06 08:25:09;;;;;;;;;;;;;;;22.03;100.00;100343.84;5072647;28;19986;-82
2022/08/06 08:27:38;;;;;;;;;;;;;;;22.11;100.00;100361.41;5072774;28;20363;-82
2022/08/06 08:30:05;;;;;;;;;;;;;;;21.94;100.00;100355.19;5075023;28;19925;-82
2022/08/06 08:32:32;;;;;;;;;;;;;;;22.04;100.00;100351.09;5073601;28;19925;-81
2022/08/06 08:34:59;;;;;;;;;;;;;;;20.65;100.00;100349.72;5072264;28;19947;-83
2022/08/06 08:37:27;;;;;;;;;;;;;;;20.86;100.00;100352.56;5085469;28;20007;-82
2022/08/06 08:39:54;;;;;;;;;;;;;;;21.42;100.00;100356.09;5088844;28;19931;-82
2022/08/06 08:42:33;;;;;;;;;;;;;;;22.42;100.00;100354.34;5096146;28;19924;-82
2022/08/06 08:45:00;;;;;;;;;;;;;;;22.99;100.00;100347.69;5075851;28;19935;-82
2022/08/06 08:47:29;;;;;;;;;;;;;;;23.00;100.00;100337.88;5076247;28;19963;-81
2022/08/06 08:49:58;;;;;;;;;;;;;;;23.42;100.00;100334.28;5077025;28;19932;-81
2022/08/06 08:52:28;;;;;;;;;;;;;;;24.12;100.00;100330.78;5084786;28;19924;-82
2022/08/06 08:54:58;;;;;;;;;;;;;;;23.79;100.00;100318.59;5084924;28;19928;-84
2022/08/06 08:57:27;;;;;;;;;;;;;;;23.25;100.00;100335.94;5092226;28;20070;-84
2022/08/06 08:59:55;;;;;;;;;;;;;;;;;;5060017;28;19962;-86
2022/08/06 09:02:26;;;;;;;;;;;;;;;21.73;100.00;100333.31;5075006;28;19924;-85
2022/08/06 09:04:54;;;;;;;;;;;;;;;22.32;100.00;100326.31;5078827;28;20298;-83
2022/08/06 09:07:21;;;;;;;;;;;;;;;22.33;100.00;100333.59;5095854;28;19950;-86
2022/08/06 09:09:48;;;;;;;;;;;;;;;22.17;100.00;100331.06;5095218;28;19924;-84
2022/08/06 09:12:16;;;;;;;;;;;;;;;22.18;100.00;100344.81;5055332;28;19924;-84
2022/08/06 09:14:45;;;;;;;;;;;;;;;22.05;100.00;100344.19;5054485;28;19925;-87
2022/08/06 09:17:13;;;;;;;;;;;;;;;21.78;100.00;100346.16;5054712;28;20033;-84
2022/08/06 09:19:42;;;;;;;;;;;;;;;21.88;100.00;100342.84;5044342;28;19929;-83
2022/08/06 09:22:09;;;;;;;;;;;;;;;21.81;100.00;100345.22;5038782;28;20007;-82
2022/08/06 09:24:37;;;;;;;;;;;;;;;21.42;100.00;100339.03;5054570;28;20388;-83
2022/08/06 09:27:09;;;;;;;;;;;;;;;21.84;100.00;100358.50;5022639;28;19924;-83
2022/08/06 09:29:47;;;;;;;;;;;;;;;22.25;100.00;100350.19;5054566;28;19929;-82
2022/08/06 09:32:34;;;;;;;;;;;;;;;21.74;100.00;100354.81;5055064;28;19936;-83
2022/08/06 09:35:02;;;;;;;;;;;;;;;21.79;100.00;100359.91;5054483;28;19928;-84
2022/08/06 09:37:29;;;;;;;;;;;;;;;21.64;100.00;100364.56;5054611;28;20326;-85
2022/08/06 09:39:57;;;;;;;;;;;;;;;22.22;100.00;100359.69;5054084;28;20011;-83
2022/08/06 09:42:40;;;;;;;;;;;;;;;21.23;100.00;100359.31;5030679;28;19925;-84
2022/08/06 09:45:09;;;;;;;;;;;;;;;21.26;100.00;100364.81;5071345;28;19933;-85
2022/08/06 09:47:37;;;;;;;;;;;;;;;20.83;100.00;100364.03;5055259;28;19925;-84
2022/08/06 09:50:05;;;;;;;;;;;;;;;20.76;100.00;100364.31;5075584;28;19985;-84
2022/08/06 09:52:33;;;;;;;;;;;;;;;21.00;100.00;100368.31;5085010;28;19925;-83
2022/08/06 09:55:00;;;;;;;;;;;;;;;20.47;100.00;100370.22;5090424;28;20023;-81
2022/08/06 09:57:41;;;;;;;;;;;;;;;20.22;100.00;100372.34;5118098;27;19924;-82
2022/08/06 10:00:09;;;;;;;;;;;;;;;20.78;100.00;100373.19;5073461;28;19932;-82
2022/08/06 10:02:38;;;;;;;;;;;;;;;21.17;100.00;100364.78;5071991;28;19924;-82
2022/08/06 10:05:10;;;;;;;;;;;;;;;20.70;100.00;100363.31;5107735;28;19962;-82
2022/08/06 10:07:37;;;;;;;;;;;;;;;20.36;100.00;100374.69;5050286;28;19924;-83
2022/08/06 10:10:05;;;;;;;;;;;;;;;21.14;100.00;100365.69;5094588;28;20015;-82
2022/08/06 10:12:33;;;;;;;;;;;;;;;21.75;100.00;100364.94;5049116;28;19925;-82
2022/08/06 10:15:00;;;;;;;;;;;;;;;21.92;100.00;100371.94;5057322;28;20079;-83
2022/08/06 10:17:28;;;;;;;;;;;;;;;21.61;100.00;100365.50;5057016;28;20006;-85
2022/08/06 10:20:05;;;;;;;;;;;;;;;21.14;100.00;100362.09;5074147;28;19924;-87
2022/08/06 10:22:32;;;;;;;;;;;;;;;21.47;100.00;100373.78;5075640;28;19964;-83
2022/08/06 10:25:02;;;;;;;;;;;;;;;21.86;100.00;100359.59;5070720;28;19931;-83
2022/08/06 10:27:31;;;;;;;;;;;;;;;22.03;100.00;100352.38;5037076;28;19925;-84
2022/08/06 10:30:01;;;;;;;;;;;;;;;21.35;100.00;100358.41;5044776;28;19932;-83
2022/08/06 10:32:45;;;;;;;;;;;;;;;21.68;100.00;100364.41;5073428;28;20101;-81
2022/08/06 10:35:15;;;;;;;;;;;;;;;22.12;100.00;100363.78;5070298;28;19931;-83
2022/08/06 10:37:44;;;;;;;;;;;;;;;22.24;100.00;100351.47;5058246;28;20384;-83
2022/08/06 10:40:12;;;;;;;;;;;;;;;22.67;100.00;100348.34;5067153;28;19986;-82
2022/08/06 10:42:39;;;;;;;;;;;;;;;21.96;100.00;100346.97;5090030;28;19925;-82
2022/08/06 10:45:11;;;;;;;;;;;;;;;21.38;100.00;100360.31;5106620;28;20235;-80
2022/08/06 10:47:40;;;;;;;;;;;;;;;20.77;100.00;100368.72;5072908;28;20461;-80
2022/08/06 10:50:10;;;;;;;;;;;;;;;20.62;100.00;100361.97;5087149;28;20327;-81
2022/08/06 10:52:37;;;;;;;;;;;;;;;21.34;100.00;100371.06;5088780;28;19924;-79
2022/08/06 10:55:05;;;;;;;;;;;;;;;21.57;100.00;100361.22;5073925;28;19978;-81
2022/08/06 10:57:33;;;;;;;;;;;;;;;21.67;100.00;100352.25;5061466;28;20336;-82
2022/08/06 11:00:01;;;;;;;;;;;;;;;21.44;100.00;100364.16;5074018;28;19931;-80
2022/08/06 11:02:31;;;;;;;;;;;;;;;21.57;100.00;100361.97;5079493;28;20013;-80
2022/08/06 11:05:07;;;;;;;;;;;;;;;21.91;100.00;100356.16;5071432;28;19935;-80
2022/08/06 11:07:53;;;;;;;;;;;;;;;21.79;100.00;100351.38;5049902;28;19951;-80
2022/08/06 11:10:32;;;;;;;;;;;;;;;21.94;100.00;100352.34;5075032;28;20426;-80
2022/08/06 11:13:07;;;;;;;;;;;;;;;21.97;100.00;100357.09;5069552;28;19924;-81
2022/08/06 11:15:35;;;;;;;;;;;;;;;22.87;100.00;100345.03;5055913;28;20241;-81
2022/08/06 11:18:07;;;;;;;;;;;;;;;23.27;100.00;100341.94;5100609;28;19924;-83
2022/08/06 11:20:36;;;;;;;;;;;;;;;23.62;100.00;100343.09;5072809;28;20015;-82
2022/08/06 11:23:07;;;;;;;;;;;;;;;23.41;100.00;100344.91;5074030;28;19932;-82
2022/08/06 11:25:42;;;;;;;;;;;;;;;22.12;100.00;100346.72;5055262;28;19925;-82
2022/08/06 11:28:10;;;;;;;;;;;;;;;21.16;100.00;100360.34;5066537;28;20002;-82
2022/08/06 11:30:38;;;;;;;;;;;;;;;21.04;100.00;100354.75;5065805;28;19936;-82
2022/08/06 11:33:05;;;;;;;;;;;;;;;21.39;100.00;100356.22;5056392;28;20380;-81
2022/08/06 11:38:46;;;;;;;;;;;;;;;21.54;100.00;100345.84;5037370;28;19970;-82
2022/08/06 11:41:27;;;;;;;;;;;;;;;21.80;100.00;100355.78;5098957;28;20356;-82
2022/08/06 11:43:56;;;;;;;;;;;;;;;22.30;100.00;100346.72;5075982;28;20371;-86
2022/08/06 11:46:27;;;;;;;;;;;;;;;21.72;100.00;100357.31;5073944;28;19975;-82
2022/08/06 11:49:04;;;;;;;;;;;;;;;21.88;100.00;100359.94;5087715;28;19924;-83
2022/08/06 11:51:37;;;;;;;;;;;;;;;21.10;100.00;100350.03;5094723;28;20019;-80
2022/08/06 11:54:08;;;;;;;;;;;;;;;20.91;100.00;100354.81;5077889;28;20521;-82
2022/08/06 11:56:35;;;;;;;;;;;;;;;20.76;100.00;100348.06;5079543;28;19924;-81
2022/08/06 11:59:12;;;;;;;;;;;;;;;20.66;100.00;100348.47;5068826;28;19982;-79
2022/08/06 12:01:46;;;;;;;;;;;;;;;20.69;100.00;100353.22;5081752;28;19924;-80
2022/08/06 12:04:31;;;;;;;;;;;;;;;20.15;100.00;100342.16;5092361;28;19947;-83
2022/08/06 12:07:20;;;;;;;;;;;;;;;20.00;100.00;100346.72;5092705;28;19924;-84
2022/08/06 12:10:06;;;;;;;;;;;;;;;20.27;100.00;100354.72;5075284;28;20402;-83
2022/08/06 12:12:43;;;;;;;;;;;;;;;20.49;100.00;100347.84;5056440;28;19939;-85
2022/08/06 12:15:13;;;;;;;;;;;;;;;20.35;100.00;100353.25;5070194;28;19929;-84
2022/08/06 12:18:01;;;;;;;;;;;;;;;20.92;100.00;100361.25;5039470;28;19925;-83
2022/08/06 12:20:38;;;;;;;;;;;;;;;21.15;100.00;100352.28;5072865;28;20371;-84
2022/08/06 12:23:07;;;;;;;;;;;;;;;21.33;100.00;100352.41;5072397;28;19932;-82
2022/08/06 12:25:42;;;;;;;;;;;;;;;21.62;100.00;100341.47;5075896;28;20299;-84
2022/08/06 12:28:10;;;;;;;;;;;;;;;21.27;100.00;100346.53;5077739;28;19998;-85
2022/08/06 12:30:45;;;;;;;;;;;;;;;21.21;100.00;100345.56;5076099;28;19925;-84
2022/08/06 12:33:12;;;;;;;;;;;;;;;20.68;100.00;100354.47;5077181;28;19963;-79
2022/08/06 12:35:58;;;;;;;;;;;;;;;20.56;100.00;100350.44;5082999;28;20648;-84
2022/08/06 12:38:33;;;;;;;;;;;;;;;20.40;100.00;100347.75;5073026;28;19924;-82
2022/08/06 12:41:05;;;;;;;;;;;;;;;20.12;100.00;100356.44;5097094;28;19949;-83
2022/08/06 12:43:33;;;;;;;;;;;;;;;20.31;100.00;100352.56;5042004;28;19924;-84
2022/08/06 12:46:06;;;;;;;;;;;;;;;20.44;100.00;100341.97;5059275;28;20316;-81
2022/08/06 12:48:35;;;;;;;;;;;;;;;20.40;100.00;100359.09;5083309;28;19962;-83
2022/08/06 12:51:11;;;;;;;;;;;;;;;20.36;100.00;100354.81;5079078;28;20018;-84